Search for airport 
image banner adimage banner adimage banner ad
image banner ad

PS61 - Tidioute

Located in Tidioute, United States

ICAO - PS61, IATA -

Data provided by Airmate  

General information

Coordinates: N41°41'27" W79°21'57"
Elevation is 1100 feet MSL.
Magnetic variation is -09° East
View others Airports in Pennsylvania

Operational data

Special qualification required
Current time UTC:
Current local time:
Weather at : KJHW - Chautauqua County/Jamestown ( 52 km )
METAR: KJHW 132056Z AUTO 01009KT 340V060 10SM CLR 26/17 A2986 RMK AO2 LTG DSNT SE SLP105 T02560172 58012
TAF: KJHW 132103Z 1321/1418 01009KT P6SM SCT060 SCT200 FM140000 VRB04KT P6SM SCT250 FM141400 30008KT P6SM VCSH BKN050 FM141500 31009KT 6SM BR VCSH OVC040
View NOTAMs / SUP AIP / TFR affecting this airport [VIEW]
Communications frequencies: [VIEW]

Runways:

RWY identifierQFULength (ft)Width (ft)SurfaceLDA (ft)
061640100GRASS
241640100GRASS

Airport contact information

Address: Tidioute United States

Satellite view of PS61